Terminal Aerodrome Forecast
Issued by NWS

Home | Current Version | Previous Version | Text Only | Print | Product List | Glossary On
Versions: 1 2 3 4 5 6 7 8 9 10 11 12 13 14 15 16 17 18 19 20
267
FTUS43 KMQT 181621 AAA
TAFSAW
TAF AMD
KSAW 181621Z 1816/1912 35012KT P6SM VCSH OVC010
     FM181800 35012G20KT P6SM VCSH OVC012
     FM182300 34011G20KT P6SM -SHSN OVC015
     FM190600 33011KT P6SM OVC015
     FM190800 32010KT P6SM OVC020=

USA.gov is the U.S. government's official web portal to all federal, state and local government web resources and services.